createdAt,value
2022-09-17T00:01:31.551Z,20.10
2022-09-17T00:04:04.617Z,20.00
2022-09-17T00:06:34.143Z,19.90
2022-09-17T00:09:02.871Z,19.80
2022-09-17T00:11:32.410Z,19.70
2022-09-17T00:14:01.812Z,19.60
2022-09-17T00:16:31.460Z,19.60
2022-09-17T00:19:02.081Z,19.60
2022-09-17T00:21:30.725Z,19.50
2022-09-17T00:24:00.571Z,19.50
2022-09-17T00:26:30.188Z,19.50
2022-09-17T00:28:59.315Z,19.50
2022-09-17T00:31:28.527Z,19.60
2022-09-17T00:33:57.048Z,19.60
2022-09-17T00:36:27.195Z,19.60
2022-09-17T00:38:56.760Z,19.60
2022-09-17T00:41:26.641Z,19.60
2022-09-17T00:43:57.323Z,19.60
2022-09-17T00:46:30.600Z,19.60
2022-09-17T00:48:59.920Z,19.60
2022-09-17T00:51:32.373Z,19.50
2022-09-17T00:54:02.005Z,19.50
2022-09-17T00:56:33.249Z,19.50
2022-09-17T00:59:02.444Z,19.50
2022-09-17T01:01:31.466Z,19.50
2022-09-17T01:03:59.987Z,19.40
2022-09-17T01:06:34.550Z,19.40
2022-09-17T01:09:11.209Z,19.50
2022-09-17T01:11:50.097Z,19.40
2022-09-17T01:14:24.529Z,19.20
2022-09-17T01:16:58.855Z,19.30
2022-09-17T01:19:42.781Z,19.30
2022-09-17T01:22:15.722Z,19.30
2022-09-17T01:24:49.445Z,19.30
2022-09-17T01:27:25.755Z,19.20
2022-09-17T01:30:01.180Z,19.30
2022-09-17T01:32:34.048Z,19.30
2022-09-17T01:35:05.571Z,19.30
2022-09-17T01:37:35.688Z,19.30
2022-09-17T01:40:08.673Z,19.30
2022-09-17T01:42:39.968Z,19.20
2022-09-17T01:45:11.438Z,19.20
2022-09-17T01:47:43.765Z,19.20
2022-09-17T01:50:14.348Z,19.20
2022-09-17T01:52:44.927Z,19.20
2022-09-17T01:55:15.759Z,19.20
2022-09-17T01:57:47.076Z,19.30
2022-09-17T02:00:17.810Z,19.30
2022-09-17T02:02:49.820Z,19.40
2022-09-17T02:05:21.036Z,19.40
2022-09-17T02:07:52.281Z,19.40
2022-09-17T02:10:22.497Z,19.50
2022-09-17T02:12:54.165Z,19.40
2022-09-17T02:15:23.973Z,19.40
2022-09-17T02:17:56.110Z,19.50
2022-09-17T02:20:26.097Z,19.30
2022-09-17T02:22:58.123Z,19.30
2022-09-17T02:25:30.104Z,19.30
2022-09-17T02:28:03.433Z,19.20
2022-09-17T02:30:32.674Z,19.20
2022-09-17T02:33:03.014Z,19.20
2022-09-17T02:35:33.313Z,19.10
2022-09-17T02:38:02.013Z,19.10
2022-09-17T02:40:33.155Z,19.10
2022-09-17T02:43:08.587Z,19.10
2022-09-17T02:45:43.446Z,19.10
2022-09-17T02:48:21.272Z,19.10
2022-09-17T02:51:00.475Z,19.10
2022-09-17T02:53:35.267Z,19.20
2022-09-17T02:56:13.903Z,19.10
2022-09-17T02:58:46.699Z,19.20
2022-09-17T03:01:19.939Z,19.20
2022-09-17T03:03:51.422Z,19.20
2022-09-17T03:06:39.330Z,19.20
2022-09-17T03:09:08.011Z,19.30
2022-09-17T03:11:36.618Z,19.20
2022-09-17T03:14:05.449Z,19.20
2022-09-17T03:16:34.012Z,19.20
2022-09-17T03:19:04.097Z,19.20
2022-09-17T03:21:32.640Z,19.30
2022-09-17T03:24:01.588Z,19.20
2022-09-17T03:26:30.038Z,19.20
2022-09-17T03:28:59.266Z,19.20
2022-09-17T03:31:29.448Z,19.20
2022-09-17T03:33:58.982Z,19.20
2022-09-17T03:36:29.072Z,19.10
2022-09-17T03:38:57.682Z,19.10
2022-09-17T03:41:26.778Z,18.90
2022-09-17T03:43:55.203Z,18.90
2022-09-17T03:46:23.946Z,18.90
2022-09-17T03:48:52.418Z,18.80
2022-09-17T03:51:21.013Z,18.70
2022-09-17T03:53:51.092Z,18.70
2022-09-17T03:56:19.753Z,18.70
2022-09-17T03:58:48.309Z,18.70
2022-09-17T04:01:17.047Z,18.60
2022-09-17T04:03:46.151Z,18.60
2022-09-17T04:06:14.653Z,18.60
2022-09-17T04:08:43.895Z,18.60
2022-09-17T04:11:14.104Z,18.60
2022-09-17T04:13:42.705Z,18.60
2022-09-17T04:16:11.580Z,18.60
2022-09-17T04:18:40.255Z,18.60
2022-09-17T04:21:08.992Z,18.70
2022-09-17T04:23:37.551Z,18.60
2022-09-17T04:26:06.268Z,18.70
2022-09-17T04:28:36.241Z,18.70
2022-09-17T04:31:04.922Z,18.70
2022-09-17T04:33:33.550Z,18.70
2022-09-17T04:36:02.130Z,18.70
2022-09-17T04:38:30.617Z,18.70
2022-09-17T04:40:59.256Z,18.80
2022-09-17T04:43:27.708Z,18.80
2022-09-17T04:45:57.750Z,18.90
2022-09-17T04:48:26.427Z,18.90
2022-09-17T04:50:54.908Z,19.00
2022-09-17T04:53:23.376Z,19.10
2022-09-17T04:55:51.921Z,19.20
2022-09-17T04:58:20.446Z,19.30
2022-09-17T05:00:49.522Z,19.30
2022-09-17T05:03:19.440Z,19.40
2022-09-17T05:05:47.893Z,19.50
2022-09-17T05:08:16.502Z,19.50
2022-09-17T05:10:45.279Z,19.60
2022-09-17T05:13:13.788Z,19.60
2022-09-17T05:15:42.623Z,19.70
2022-09-17T05:18:11.211Z,19.80
2022-09-17T05:20:41.272Z,19.90
2022-09-17T05:23:09.894Z,20.00
2022-09-17T05:25:38.389Z,20.20
2022-09-17T05:28:07.187Z,20.30
2022-09-17T05:30:35.974Z,20.40
2022-09-17T05:33:05.889Z,20.60
2022-09-17T05:35:36.084Z,20.70
2022-09-17T05:38:10.090Z,20.80
2022-09-17T05:40:39.306Z,20.90
2022-09-17T05:43:08.431Z,21.00
2022-09-17T05:45:37.725Z,21.10
2022-09-17T05:48:07.624Z,21.20
2022-09-17T05:50:36.205Z,21.40
2022-09-17T05:53:07.067Z,21.40
2022-09-17T05:55:36.382Z,21.60
2022-09-17T05:58:11.311Z,21.60
2022-09-17T06:00:40.052Z,21.80
2022-09-17T06:03:08.694Z,21.80
2022-09-17T06:05:39.746Z,22.00
2022-09-17T06:08:10.713Z,22.00
2022-09-17T06:10:39.679Z,22.20
2022-09-17T06:13:08.276Z,22.30
2022-09-17T06:15:36.815Z,22.40
2022-09-17T06:18:05.427Z,22.50
2022-09-17T06:20:34.409Z,22.60
2022-09-17T06:23:03.079Z,22.70
2022-09-17T06:25:33.847Z,22.80
2022-09-17T06:28:03.809Z,22.90
2022-09-17T06:30:32.601Z,23.00
2022-09-17T06:33:01.825Z,23.10
2022-09-17T06:35:31.018Z,23.20
2022-09-17T06:37:59.755Z,23.30
2022-09-17T06:40:28.394Z,23.40
2022-09-17T06:43:00.704Z,23.70
2022-09-17T06:45:32.342Z,23.70
2022-09-17T06:48:05.237Z,23.80
2022-09-17T06:50:33.897Z,23.90
2022-09-17T06:53:02.467Z,24.00
2022-09-17T06:55:31.873Z,24.10
2022-09-17T06:58:01.950Z,24.20
2022-09-17T07:00:49.072Z,24.30
2022-09-17T07:03:22.497Z,24.40
2022-09-17T07:05:52.041Z,24.40
2022-09-17T07:08:20.530Z,24.50
2022-09-17T07:10:50.358Z,24.60
2022-09-17T07:13:20.649Z,24.70
2022-09-17T07:15:55.349Z,24.70
2022-09-17T07:18:24.236Z,24.90
2022-09-17T07:20:56.437Z,24.90
2022-09-17T07:23:25.398Z,25.00
2022-09-17T07:26:14.444Z,25.10
2022-09-17T07:28:45.227Z,25.20
2022-09-17T07:31:16.594Z,25.30
2022-09-17T07:33:45.961Z,25.50
2022-09-17T07:36:15.144Z,25.70
2022-09-17T07:38:43.668Z,25.70
2022-09-17T07:41:13.955Z,25.90
2022-09-17T07:43:42.839Z,26.00
2022-09-17T07:46:15.711Z,26.10
2022-09-17T07:48:44.532Z,26.30
2022-09-17T07:51:16.390Z,26.40
2022-09-17T07:53:45.050Z,26.50
2022-09-17T07:56:13.545Z,26.60
2022-09-17T07:58:42.499Z,26.70
2022-09-17T08:01:13.677Z,26.90
2022-09-17T08:03:42.513Z,27.00
2022-09-17T08:06:11.808Z,27.10
2022-09-17T08:08:40.814Z,27.20
2022-09-17T08:11:10.356Z,27.40
2022-09-17T08:13:39.311Z,27.50
2022-09-17T08:16:08.744Z,27.60
2022-09-17T08:18:38.861Z,27.80
2022-09-17T08:21:08.396Z,27.90
2022-09-17T08:23:37.700Z,28.00
2022-09-17T08:26:08.684Z,28.20
2022-09-17T08:28:37.543Z,28.30
2022-09-17T08:31:08.387Z,28.50
2022-09-17T08:33:39.070Z,28.70
2022-09-17T08:36:08.735Z,28.80
2022-09-17T08:38:38.743Z,29.10
2022-09-17T08:41:14.815Z,29.10
2022-09-17T08:43:45.442Z,29.30
2022-09-17T08:46:14.214Z,29.40
2022-09-17T08:48:48.996Z,29.60
2022-09-17T08:51:41.942Z,29.80
2022-09-17T08:54:14.147Z,29.90
2022-09-17T08:56:45.284Z,30.10
2022-09-17T08:59:22.160Z,30.30
2022-09-17T09:01:55.565Z,30.50
2022-09-17T09:04:35.780Z,30.60
2022-09-17T09:07:08.060Z,30.80
2022-09-17T09:09:39.862Z,31.00
2022-09-17T09:12:11.936Z,31.20
2022-09-17T09:14:47.688Z,31.30
2022-09-17T09:17:20.040Z,31.60
2022-09-17T09:20:15.985Z,31.70
2022-09-17T09:22:50.145Z,31.90
2022-09-17T09:25:25.517Z,32.10
2022-09-17T09:28:07.601Z,32.30
2022-09-17T09:30:44.179Z,32.50
2022-09-17T09:33:14.954Z,32.70
2022-09-17T09:35:45.997Z,32.90
2022-09-17T09:38:18.353Z,33.20
2022-09-17T09:40:50.221Z,33.30
2022-09-17T09:43:21.058Z,33.40
2022-09-17T09:46:01.230Z,33.60
2022-09-17T09:48:53.359Z,33.70
2022-09-17T09:51:30.761Z,33.90
2022-09-17T09:54:08.153Z,34.10
2022-09-17T09:56:44.171Z,34.20
2022-09-17T09:59:13.172Z,34.50
2022-09-17T10:01:42.630Z,34.70
2022-09-17T10:04:17.131Z,34.90
2022-09-17T10:06:47.266Z,35.10
2022-09-17T10:09:17.944Z,35.30
2022-09-17T10:12:06.584Z,35.60
2022-09-17T10:14:35.798Z,36.00
2022-09-17T10:17:17.968Z,36.20
2022-09-17T10:19:47.306Z,36.50
2022-09-17T10:22:27.832Z,36.90
2022-09-17T10:24:57.589Z,37.40
2022-09-17T10:27:26.567Z,38.00
2022-09-17T10:29:59.484Z,38.40
2022-09-17T10:32:28.051Z,38.80
2022-09-17T10:35:01.269Z,39.20
2022-09-17T10:37:35.614Z,39.40
2022-09-17T10:40:24.209Z,39.60
2022-09-17T10:43:14.509Z,39.70
2022-09-17T10:45:45.091Z,39.70
2022-09-17T10:48:17.262Z,39.80
2022-09-17T10:50:49.538Z,39.90
2022-09-17T10:53:19.977Z,40.00
2022-09-17T10:55:49.794Z,40.10
2022-09-17T10:58:31.876Z,40.20
2022-09-17T11:01:04.166Z,40.20
2022-09-17T11:03:56.811Z,40.30
2022-09-17T11:06:44.178Z,40.50
2022-09-17T11:09:20.385Z,40.60
2022-09-17T11:11:56.289Z,40.70
2022-09-17T11:14:38.399Z,40.80
2022-09-17T11:17:12.875Z,40.80
2022-09-17T11:19:47.333Z,40.90
2022-09-17T11:22:21.226Z,41.00
2022-09-17T11:25:07.612Z,40.90
2022-09-17T11:27:48.036Z,40.80
2022-09-17T11:30:18.129Z,40.60
2022-09-17T11:32:55.414Z,40.60
2022-09-17T11:35:25.723Z,40.40
2022-09-17T11:37:59.900Z,40.30
2022-09-17T11:40:33.604Z,40.10
2022-09-17T11:43:05.209Z,39.90
2022-09-17T11:45:36.167Z,39.70
2022-09-17T11:48:06.653Z,39.70
2022-09-17T11:50:39.082Z,39.50
2022-09-17T11:53:11.125Z,39.40
2022-09-17T11:55:41.752Z,39.30
2022-09-17T11:58:17.235Z,39.00
2022-09-17T12:00:50.368Z,38.90
2022-09-17T12:03:23.546Z,38.80
2022-09-17T12:05:53.792Z,38.80
2022-09-17T12:08:24.082Z,38.70
2022-09-17T12:10:54.410Z,38.60
2022-09-17T12:13:45.212Z,38.50
2022-09-17T12:16:15.873Z,38.40
2022-09-17T12:18:49.191Z,38.30
2022-09-17T12:21:19.623Z,38.40
2022-09-17T12:23:50.602Z,38.20
2022-09-17T12:26:51.933Z,38.10
2022-09-17T12:29:29.457Z,38.10
2022-09-17T12:32:00.444Z,38.00
2022-09-17T12:34:34.270Z,38.00
2022-09-17T12:37:10.090Z,37.90
2022-09-17T12:39:45.531Z,37.90
2022-09-17T12:42:20.292Z,37.80
2022-09-17T12:44:57.556Z,37.70
2022-09-17T12:47:49.809Z,37.70
2022-09-17T12:50:21.970Z,37.60
2022-09-17T12:53:02.453Z,37.60
2022-09-17T12:55:37.797Z,37.60
2022-09-17T12:58:09.786Z,37.60
2022-09-17T13:00:42.111Z,37.60
2022-09-17T13:03:17.415Z,37.50
2022-09-17T13:06:10.368Z,37.60
2022-09-17T13:08:56.566Z,37.60
2022-09-17T13:11:41.275Z,37.70
2022-09-17T13:14:17.488Z,37.80
2022-09-17T13:16:51.398Z,37.80
2022-09-17T13:19:25.526Z,37.70
2022-09-17T13:21:55.881Z,37.70
2022-09-17T13:24:25.888Z,37.70
2022-09-17T13:26:55.072Z,37.70
2022-09-17T13:29:56.710Z,37.60
2022-09-17T13:32:45.491Z,37.60
2022-09-17T13:35:32.746Z,37.60
2022-09-17T13:38:02.123Z,37.50
2022-09-17T13:40:31.869Z,37.50
2022-09-17T13:43:07.997Z,37.40
2022-09-17T13:45:56.792Z,37.40
2022-09-17T13:48:27.953Z,37.40
2022-09-17T13:50:57.396Z,37.40
2022-09-17T13:53:28.243Z,37.40
2022-09-17T13:55:58.982Z,37.30
2022-09-17T13:58:29.267Z,37.30
2022-09-17T14:00:58.876Z,37.20
2022-09-17T14:03:45.938Z,37.00
2022-09-17T14:06:33.760Z,37.00
2022-09-17T14:09:23.733Z,36.80
2022-09-17T14:11:52.434Z,36.70
2022-09-17T14:14:42.292Z,36.60
2022-09-17T14:17:11.629Z,36.50
2022-09-17T14:19:51.057Z,36.40
2022-09-17T14:22:25.058Z,36.30
2022-09-17T14:24:55.708Z,36.20
2022-09-17T14:27:42.382Z,36.20
2022-09-17T14:30:15.925Z,36.10
2022-09-17T14:32:46.183Z,36.00
2022-09-17T14:35:20.005Z,36.00
2022-09-17T14:37:53.855Z,35.90
2022-09-17T14:40:25.330Z,35.90
2022-09-17T14:42:56.744Z,35.80
2022-09-17T14:45:27.711Z,35.80
2022-09-17T14:48:14.571Z,35.70
2022-09-17T14:50:43.199Z,35.60
2022-09-17T14:53:15.964Z,35.50
2022-09-17T14:55:46.729Z,35.50
2022-09-17T14:58:29.538Z,35.40
2022-09-17T15:01:01.175Z,35.40
2022-09-17T15:03:29.835Z,35.20
2022-09-17T15:05:58.625Z,35.10
2022-09-17T15:08:29.022Z,35.10
2022-09-17T15:11:00.490Z,35.00
2022-09-17T15:13:30.076Z,34.90
2022-09-17T15:16:01.048Z,34.80
2022-09-17T15:18:37.720Z,34.60
2022-09-17T15:21:08.959Z,34.50
2022-09-17T15:23:41.473Z,34.30
2022-09-17T15:26:13.446Z,34.20
2022-09-17T15:28:43.124Z,34.00
2022-09-17T15:31:17.353Z,33.80
2022-09-17T15:33:46.099Z,33.70
2022-09-17T15:36:19.498Z,33.50
2022-09-17T15:38:48.116Z,33.40
2022-09-17T15:41:28.794Z,33.20
2022-09-17T15:44:28.530Z,33.00
2022-09-17T15:47:33.243Z,32.80
2022-09-17T15:50:14.855Z,32.60
2022-09-17T15:52:43.829Z,32.40
2022-09-17T15:55:29.506Z,32.30
2022-09-17T15:58:00.408Z,32.10
2022-09-17T16:00:29.037Z,31.90
2022-09-17T16:02:57.588Z,31.70
2022-09-17T16:05:55.665Z,31.60
2022-09-17T16:08:26.032Z,31.50
2022-09-17T16:10:54.588Z,31.30
2022-09-17T16:13:28.571Z,31.10
2022-09-17T16:15:57.780Z,31.00
2022-09-17T16:18:26.299Z,30.80
2022-09-17T16:20:54.801Z,30.60
2022-09-17T16:23:23.567Z,30.50
2022-09-17T16:25:52.871Z,30.30
2022-09-17T16:28:21.433Z,30.20
2022-09-17T16:30:52.106Z,30.10
2022-09-17T16:33:20.747Z,29.90
2022-09-17T16:35:49.320Z,29.70
2022-09-17T16:38:17.926Z,29.50
2022-09-17T16:40:47.922Z,29.40
2022-09-17T16:43:16.509Z,29.20
2022-09-17T16:45:45.292Z,29.00
2022-09-17T16:48:15.312Z,28.90
2022-09-17T16:50:44.916Z,28.70
2022-09-17T16:53:14.335Z,28.60
2022-09-17T16:55:42.864Z,28.40
2022-09-17T16:58:12.486Z,28.30
2022-09-17T17:00:44.471Z,28.10
2022-09-17T17:03:14.949Z,28.00
2022-09-17T17:05:43.941Z,27.90
2022-09-17T17:08:12.499Z,27.80
2022-09-17T17:10:41.180Z,27.70
2022-09-17T17:13:09.688Z,27.60
2022-09-17T17:15:41.655Z,27.60
2022-09-17T17:18:10.326Z,27.50
2022-09-17T17:20:40.366Z,27.40
2022-09-17T17:23:09.617Z,27.30
2022-09-17T17:25:38.591Z,27.30
2022-09-17T17:28:09.151Z,27.30
2022-09-17T17:30:38.640Z,27.30
2022-09-17T17:33:07.172Z,27.30
2022-09-17T17:35:35.806Z,27.30
2022-09-17T17:38:05.849Z,27.30
2022-09-17T17:40:42.576Z,27.40
2022-09-17T17:43:14.581Z,27.30
2022-09-17T17:45:43.350Z,27.30
2022-09-17T17:48:11.925Z,27.30
2022-09-17T17:50:40.488Z,27.20
2022-09-17T17:53:10.721Z,27.10
2022-09-17T17:55:39.249Z,27.00
2022-09-17T17:58:07.689Z,26.90
2022-09-17T18:00:36.208Z,26.80
2022-09-17T18:03:05.040Z,26.80
2022-09-17T18:05:33.567Z,26.70
2022-09-17T18:08:02.268Z,26.60
2022-09-17T18:10:32.225Z,26.50
2022-09-17T18:13:01.317Z,26.50
2022-09-17T18:15:29.928Z,26.40
2022-09-17T18:17:58.381Z,26.30
2022-09-17T18:20:26.884Z,26.20
2022-09-17T18:22:56.007Z,26.10
2022-09-17T18:25:24.504Z,26.00
2022-09-17T18:27:54.455Z,25.90
2022-09-17T18:30:23.133Z,25.90
2022-09-17T18:32:53.180Z,25.80
2022-09-17T18:35:23.229Z,25.80
2022-09-17T18:37:51.836Z,25.70
2022-09-17T18:40:20.366Z,25.70
2022-09-17T18:42:49.828Z,25.60
2022-09-17T18:45:19.778Z,25.60
2022-09-17T18:47:48.233Z,25.50
2022-09-17T18:50:16.955Z,25.50
2022-09-17T18:52:45.490Z,25.40
2022-09-17T18:55:14.091Z,25.30
2022-09-17T18:57:42.597Z,25.30
2022-09-17T19:00:11.747Z,25.20
2022-09-17T19:02:41.723Z,25.20
2022-09-17T19:05:29.365Z,25.10
2022-09-17T19:07:57.937Z,25.00
2022-09-17T19:10:51.076Z,25.00
2022-09-17T19:13:19.600Z,24.90
2022-09-17T19:16:07.950Z,24.90
2022-09-17T19:18:38.426Z,24.80
2022-09-17T19:21:08.242Z,24.70
2022-09-17T19:23:41.251Z,24.60
2022-09-17T19:26:10.764Z,24.60
2022-09-17T19:28:39.604Z,24.50
2022-09-17T19:31:08.457Z,24.50
2022-09-17T19:33:38.435Z,24.40
2022-09-17T19:36:08.567Z,24.40
2022-09-17T19:38:37.164Z,24.40
2022-09-17T19:41:06.911Z,24.30
2022-09-17T19:43:35.447Z,24.30
2022-09-17T19:46:04.246Z,24.20
2022-09-17T19:48:33.171Z,24.20
2022-09-17T19:51:03.593Z,24.20
2022-09-17T19:53:33.241Z,24.10
2022-09-17T19:56:04.572Z,24.10
2022-09-17T19:58:33.128Z,24.00
2022-09-17T20:01:01.658Z,24.00
2022-09-17T20:03:31.411Z,24.00
2022-09-17T20:06:03.321Z,23.90
2022-09-17T20:08:32.284Z,23.90
2022-09-17T20:11:05.807Z,23.90
2022-09-17T20:13:34.326Z,23.90
2022-09-17T20:16:06.106Z,23.90
2022-09-17T20:18:35.727Z,23.80
2022-09-17T20:21:09.474Z,23.80
2022-09-17T20:23:38.198Z,23.80
2022-09-17T20:26:06.907Z,23.80
2022-09-17T20:28:35.552Z,23.70
2022-09-17T20:31:04.575Z,23.70
2022-09-17T20:33:33.111Z,23.60
2022-09-17T20:36:02.112Z,23.50
2022-09-17T20:41:21.062Z,23.20
2022-09-17T20:43:50.206Z,23.20
2022-09-17T20:46:19.442Z,23.00
2022-09-17T20:48:48.257Z,23.10
2022-09-17T20:51:17.486Z,22.90
2022-09-17T20:53:48.254Z,22.80
2022-09-17T20:56:17.689Z,22.70
2022-09-17T20:58:49.170Z,22.70
2022-09-17T21:01:20.807Z,22.60
2022-09-17T21:03:50.389Z,22.60
2022-09-17T21:06:19.576Z,22.60
2022-09-17T21:08:49.874Z,22.50
2022-09-17T21:11:18.771Z,22.50
2022-09-17T21:13:47.297Z,22.40
2022-09-17T21:16:16.165Z,22.40
2022-09-17T21:18:45.097Z,22.30
2022-09-17T21:21:14.287Z,22.30
2022-09-17T21:23:43.288Z,22.30
2022-09-17T21:26:14.453Z,22.20
2022-09-17T21:28:43.816Z,22.30
2022-09-17T21:31:13.357Z,22.20
2022-09-17T21:33:42.472Z,22.20
2022-09-17T21:36:12.394Z,22.30
2022-09-17T21:38:41.057Z,22.30
2022-09-17T21:41:10.184Z,22.40
2022-09-17T21:43:40.547Z,22.40
2022-09-17T21:46:10.137Z,22.40
2022-09-17T21:48:42.860Z,22.40
2022-09-17T21:51:12.129Z,22.40
2022-09-17T21:53:40.881Z,22.40
2022-09-17T21:56:11.135Z,22.40
2022-09-17T21:58:41.178Z,22.40
2022-09-17T22:01:11.029Z,22.30
2022-09-17T22:03:39.759Z,22.30
2022-09-17T22:06:09.912Z,22.20
2022-09-17T22:08:38.655Z,22.20
2022-09-17T22:11:10.232Z,22.20
2022-09-17T22:13:39.343Z,22.10
2022-09-17T22:16:10.326Z,22.10
2022-09-17T22:18:39.458Z,22.10
2022-09-17T22:21:14.390Z,22.10
2022-09-17T22:23:43.123Z,22.10
2022-09-17T22:26:12.539Z,22.10
2022-09-17T22:28:41.055Z,22.00
2022-09-17T22:31:12.173Z,22.00
2022-09-17T22:33:41.679Z,21.90
2022-09-17T22:36:11.133Z,21.90
2022-09-17T22:38:39.975Z,21.80
2022-09-17T22:41:08.950Z,21.80
2022-09-17T22:43:37.573Z,21.70
2022-09-17T22:46:13.127Z,21.60
2022-09-17T22:48:41.648Z,21.60
2022-09-17T22:51:10.399Z,21.50
2022-09-17T22:53:39.299Z,21.40
2022-09-17T22:56:09.286Z,21.30
2022-09-17T22:58:37.824Z,21.20
2022-09-17T23:01:07.110Z,21.20
2022-09-17T23:03:37.178Z,21.10
2022-09-17T23:06:07.662Z,21.20
2022-09-17T23:08:36.815Z,21.20
2022-09-17T23:11:06.029Z,21.20
2022-09-17T23:13:35.128Z,21.10
2022-09-17T23:16:03.849Z,21.10
2022-09-17T23:18:32.639Z,21.10
2022-09-17T23:21:04.084Z,21.10
2022-09-17T23:23:52.808Z,21.00
2022-09-17T23:26:22.599Z,21.00
2022-09-17T23:28:51.094Z,21.00
2022-09-17T23:31:38.228Z,21.00
2022-09-17T23:34:07.050Z,21.00
2022-09-17T23:36:38.297Z,21.00
2022-09-17T23:39:07.687Z,21.00
2022-09-17T23:41:37.542Z,20.90
2022-09-17T23:44:10.699Z,20.90
2022-09-17T23:46:42.565Z,20.80
2022-09-17T23:49:11.712Z,20.80
2022-09-17T23:51:41.663Z,20.70
2022-09-17T23:54:10.371Z,20.70
2022-09-17T23:56:38.963Z,20.70
2022-09-17T23:59:08.747Z,20.70
